Weather observations for the past three days for
Perry Municipal Airport
Metric (Imperial)
Date Time (cdt) Wind (kph) Vis. (km) Weather Sky Cond. Temperature (ºC) Relative Humidity Wind Chill (°C) Heat Index (°C) Pressure Precipitation (cm)
Air Dwpt 6 hour altimeter (cm) sea level (mb) 1 hr 3 hr 6 hr
Max. Min.
01 18:35 S 9 16.09 Fair CLR 30.8 26.3 77% 39 75.82 0.0
01 18:15 S 7 16.09 Fair CLR 32 26 71% 41 75.82 0.0
01 17:55 S 7 16.09 Fair CLR 33 24.1 60% 39 75.84 0.0
01 17:35 S 7 16.09 Fair CLR 32.9 25.1 64% 41 75.84 0.0
01 17:15 S 7 16.09 Fair CLR 33.2 24.5 60% 40 75.84 0.0
01 16:55 S 13 16.09 Fair CLR 33.2 23.6 57% 39 75.84 0.0
01 16:35 S 9 16.09 Fair CLR 33.4 23.6 56% 39 75.84 0.0
01 16:15 S 17 16.09 Fair CLR 33.3 23.2 55% 39 75.87 0.0
01 15:55 S 9 16.09 Fair CLR 33.3 24 58% 40 75.9 0.0
01 15:35 S 7 16.09 Fair CLR 33 24.4 61% 40 75.9 0.0
01 15:15 S 9 16.09 Fair CLR 33.1 24.5 61% 40 75.92 0.0
01 14:55 S 11 16.09 Fair CLR 32.7 23 57% 38 75.92 0.0
01 14:35 S 11 16.09 Fair CLR 32.8 23.9 59% 39 75.95 0.0
01 14:15 S 13 16.09 Fair CLR 32.4 22.9 57% 37 75.97 0.0
01 13:55 S 7 16.09 Fair CLR 32.7 23 57% 38 75.97 0.0
01 13:35 S 11 16.09 Fair CLR 32.4 22.9 57% 37 76 0.0
01 13:15 SW 9 16.09 Fair CLR 32.2 21.7 54% 36 76 0.0
01 12:55 SW 6 16.09 Fair CLR 32 22.7 58% 36 76.02 0.0
01 12:35 S 7 16.09 Fair CLR 31.8 22.6 58% 36 76.02 0.0
01 12:15 W 7 16.09 Fair CLR 31.4 22.4 59% 35 76.02 0.0
01 11:55 S 7 16.09 A Few Clouds FEW360 31.1 23 62% 36 76.02 0.0
01 11:35 SW 11 16.09 Fair CLR 30.7 22.7 62% 35 76.05 0.0
01 11:15 SW 7 16.09 Fair CLR 30.2 22.6 64% 34 76.05 0.0
01 10:55 SW 9 16.09 Fair CLR 30.1 22.9 65% 34 76.02 0.0
01 10:35 SW 6 16.09 Fair CLR 29.5 23.1 69% 34 76.02 0.0
01 10:15 SW 7 16.09 Fair CLR 28.8 23.2 72% 33 76.02 0.0
01 09:55 S 6 16.09 Fair CLR 27.8 24.5 82% 32 76.02 0.0
01 09:35 S 6 16.09 Fair CLR 26.7 25.2 92% 30 76.02 0.0
01 08:50 S 7 16.09 Fair CLR 24.9 24.9 100% 25 76.05 0.0
01 08:35 SE 6 16.09 Fair CLR 24.3 24.2 99% 23 76.05 0.0
01 08:15 Calm 16.09 Fair CLR 23.2 22.8 98% 76.05 0.0
01 07:55 NE 6 11.27 Fair CLR 22.6 22.3 98% 76.05 0.0
01 07:35 Calm 9.66 Fog/Mist CLR 22.1 21.8 98% 76.02 0.0
01 07:15 Calm 11.27 A Few Clouds FEW140 21.3 21 98% 76.02 0.0
01 06:55 Calm 9.66 Fog/Mist FEW180 20.9 20.6 98% 76.02 0.0
01 06:35 S 7 11.27 Partly Cloudy SCT170 SCT190 21.1 20.7 98% 76 0.0
01 06:15 S 9 9.66 Fog/Mist FEW110 SCT170 21.5 21.2 98% 76 0.0
01 05:55 Calm 6.44 Fog/Mist SCT170 21.3 21 98% 76.02 0.0
01 05:35 Calm 9.66 Fog/Mist FEW170 21.6 21.3 98% 76.02 0.0
01 05:15 S 7 9.66 Fog/Mist CLR 21.6 21.2 98% 76.02 0.0
01 04:55 S 7 14.48 Fair CLR 21.5 21.2 98% 76.02 0.0
01 04:35 Calm 14.48 Fair CLR 21.8 21.5 98% 76.02 0.0
01 04:15 S 9 14.48 A Few Clouds FEW170 22.2 21.8 98% 76 0.0
01 03:55 S 11 2.82 Fog/Mist CLR 21.2 21 99% 76.02 0.0
01 03:35 Calm 12.87 A Few Clouds FEW110 21.3 21.1 99% 76.02 0.0
01 03:15 Calm 9.66 Fog/Mist FEW110 21.9 21.7 99% 76.02 0.0
01 02:55 Calm 14.48 Fair CLR 22.7 22.6 99% 76.05 0.0
01 02:35 NE 6 16.09 A Few Clouds FEW090 22.7 22.6 99% 76.02 0.0
01 02:15 Calm 16.09 A Few Clouds FEW090 21.9 21.9 100% 76.05 0.0
01 01:55 Calm 16.09 A Few Clouds FEW095 22 22 100% 76.05 0.0
01 01:35 N 6 16.09 A Few Clouds FEW100 22.7 22.7 100% 76.05 0.0
01 01:15 Calm 16.09 Fair CLR 22.4 22.4 100% 76.05 0.0
01 00:55 Calm 16.09 Partly Cloudy SCT130 22.7 22.7 100% 76.05 0.0
01 00:35 Calm 16.09 Overcast OVC130 23 23 100% 76.05 0.0
01 00:15 Calm 16.09 Overcast OVC130 23.3 23.3 100% 76.02 0.0
31 23:55 Calm 16.09 Overcast OVC130 23.1 23.1 100% 76.02 0.0
31 23:35 Calm 14.48 Mostly Cloudy BKN130 22.2 22.2 100% 76.02 0.0
31 23:15 Calm 16.09 A Few Clouds FEW140 22.6 22.6 100% 76 0.0
31 22:55 Calm 16.09 A Few Clouds FEW140 23.1 23.1 100% 76 0.0
31 22:35 Calm 16.09 Fair CLR 23.4 23.4 100% 76 0.0
31 22:15 W 6 14.48 Fair CLR 23.5 23.5 100% 76 0.0
31 21:55 W 6 16.09 Fair CLR 24 24 100% 23 76 0.0
31 21:35 SW 6 16.09 A Few Clouds FEW130 24.5 24.5 100% 24 75.97 0.0
31 21:15 SW 6 16.09 A Few Clouds FEW140 24.7 24.7 100% 24 75.97 0.0
31 20:55 SW 7 16.09 Partly Cloudy SCT130 24.9 24.9 100% 25 75.97 0.0
31 20:35 W 7 16.09 Fair CLR 25.9 25.9 100% 28 75.97 0.0
31 20:15 W 7 16.09 Fair CLR 26.5 26.4 99% 30 75.95 0.0
31 19:55 W 7 16.09 Partly Cloudy FEW130 SCT190 27.5 26.5 94% 33 75.95 0.0
31 19:35 SW 11 16.09 Partly Cloudy SCT130 27.9 27 95% 34 75.92 0.0
31 19:15 SW 9 16.09 Fair CLR 29.1 27.2 90% 37 75.92 0.0
31 18:35 SW 13 16.09 A Few Clouds FEW130 30.3 26.9 82% 39 75.92 0.0
31 18:15 SW 11 16.09 Partly Cloudy FEW120 SCT180 29.8 26.7 83% 38 75.9 0.0
31 17:55 SW 13 16.09 A Few Clouds FEW130 30 26.3 81% 38 75.92 0.0
31 17:35 SW 11 16.09 Fair CLR 31.2 26.4 76% 40 75.9 0.0
31 17:15 SW 15 16.09 Fair CLR 31.3 26.4 75% 40 75.9 0.0
31 16:55 S 13 16.09 A Few Clouds FEW160 31.7 26.8 75% 41 75.9 0.0
31 16:35 SW 11 16.09 Partly Cloudy SCT160 32.1 25.7 69% 40 75.9 0.0
31 16:15 SW 13 16.09 Fair CLR 31.5 25.4 70% 39 75.9 0.0
31 15:55 SW 17 16.09 Fair CLR 32.3 26.2 70% 41 75.9 0.0
31 15:35 S 13 16.09 Fair CLR 32.8 26.5 69% 43 75.9 0.0
31 15:15 S 11 16.09 A Few Clouds FEW150 33.2 27 70% 44 75.9 0.0
31 14:55 SW 7 16.09 A Few Clouds FEW150 32.7 25.3 65% 41 75.9 0.0
31 14:35 W 9 16.09 A Few Clouds FEW150 31.8 25.5 69% 40 75.9 0.0
31 14:15 SW 9 16.09 A Few Clouds FEW180 31.9 25.8 70% 40 75.9 0.0
31 13:55 SW 9 16.09 A Few Clouds FEW360 32 25.7 69% 40 75.9 0.0
31 13:35 SW 11 16.09 Fair CLR 31.6 25.8 71% 40 75.9 0.0
31 13:15 SW 13 16.09 A Few Clouds FEW330 30.9 26 75% 39 75.92 0.0
31 12:55 S 9 16.09 A Few Clouds FEW350 30.8 26.2 77% 39 75.92 0.0
31 12:35 S 7 16.09 A Few Clouds FEW180 31.1 25.7 73% 39 75.9 0.0
31 12:15 Vrbl 6 16.09 A Few Clouds FEW230 30.4 24.7 72% 36 75.87 0.0
31 11:55 Calm 16.09 A Few Clouds FEW130 29.8 24.2 72% 35 75.87 0.0
31 11:35 W 7 16.09 A Few Clouds FEW130 29.3 24.6 76% 35 75.87 0.0
31 11:15 Calm 16.09 A Few Clouds FEW250 29.6 23.7 71% 34 75.84 0.0
31 10:55 Calm 16.09 A Few Clouds FEW190 27.9 24.1 80% 32 75.84 0.0
31 10:35 Calm 16.09 A Few Clouds FEW250 27.3 23.9 82% 31 75.84 0.0
31 10:15 W 6 16.09 A Few Clouds FEW250 26.7 23.6 83% 29 75.87 0.0
31 09:55 SW 15 16.09 Fair CLR 25.5 22.5 84% 27 75.9 0.0
31 09:35 SW 15 16.09 Partly Cloudy SCT170 24.9 22.5 87% 26 75.9 0.0
31 09:15 S 7 16.09 Mostly Cloudy BKN170 24.4 23.1 93% 24 75.84 0.0
31 08:55 Calm 16.09 Partly Cloudy SCT160 23.8 22.6 93% 75.84 0.0
31 08:35 Calm 14.48 Partly Cloudy SCT150 SCT210 23 22.5 97% 75.84 0.0
31 08:15 S 6 16.09 Mostly Cloudy SCT150 SCT200 BKN220 22 21.7 98% 75.84 0.0
31 07:55 S 7 14.48 Mostly Cloudy BKN190 21.4 21.2 99% 75.82 0.0
31 07:35 S 7 16.09 Mostly Cloudy BKN200 20.8 20.8 100% 75.77 0.0
31 07:15 SE 7 14.48 Mostly Cloudy BKN200 20.3 20.3 100% 75.74 0.0
31 06:55 Calm 14.48 Mostly Cloudy SCT190 BKN210 19.9 19.9 100% 75.74 0.0
31 06:35 S 9 16.09 Partly Cloudy SCT190 20.1 20.1 100% 75.72 0.0
31 06:15 SW 7 16.09 A Few Clouds FEW190 19.4 19.4 100% 75.72 0.0
31 05:55 Calm 16.09 Partly Cloudy SCT210 20.3 20.3 100% 75.72 0.0
31 05:35 Calm 16.09 Partly Cloudy SCT200 21.6 20.4 93% 75.69 0.0
31 05:15 S 7 16.09 Fair CLR 22 20.5 91% 75.69 0.0
31 04:55 Calm 16.09 Fair CLR 21.1 20.6 97% 75.69 0.0
31 04:35 S 7 16.09 A Few Clouds FEW210 22.2 20.7 91% 75.67 0.0
31 04:15 S 6 16.09 Partly Cloudy SCT200 22.7 20.8 89% 75.67 0.0
31 03:55 S 7 16.09 A Few Clouds FEW190 22.8 21.1 90% 75.67 0.0
31 03:35 S 9 16.09 Mostly Cloudy BKN210 22.8 21.2 91% 75.67 0.0
31 03:15 S 9 16.09 Mostly Cloudy BKN210 22.8 21.4 92% 75.67 0.0
31 02:55 S 9 16.09 Partly Cloudy SCT200 23.1 21.4 90% 75.67 0.0
31 02:35 S 11 16.09 Partly Cloudy SCT200 22.9 21.6 92% 75.67 0.0
31 02:15 S 9 16.09 Fair CLR 22.7 21.9 95% 75.67 0.0
31 01:55 S 11 16.09 Fair CLR 22.5 22.2 98% 75.67 0.0
31 01:35 S 13 16.09 Fair CLR 22.5 22.3 99% 75.69 0.0
31 01:15 S 13 16.09 Fair CLR 22.6 22.4 99% 75.69 0.0
31 00:55 S 11 16.09 Fair CLR 22.6 22.6 100% 75.69 0.0
31 00:35 S 11 16.09 Fair CLR 23.5 22.8 96% 75.69 0.0
31 00:15 S 11 16.09 Fair CLR 23.8 23 95% 75.69 0.0
30 23:55 S 11 16.09 Fair CLR 24.2 23.2 94% 24 75.69 0.0
30 23:35 S 11 16.09 Fair CLR 24.4 23.7 96% 24 75.69 0.0
30 23:15 S 9 16.09 Fair CLR 24 24 100% 23 75.69 0.0
30 22:55 S 7 16.09 Fair CLR 23.8 23.8 100% 75.69 0.0
30 22:35 S 9 16.09 Fair CLR 23.8 23.8 100% 75.69 0.0
30 22:15 S 7 16.09 Fair CLR 23.5 23.5 100% 75.69 0.0
30 21:55 S 7 14.48 Fair CLR 23.5 23.5 100% 75.69 0.0
30 21:35 SE 9 16.09 Fair CLR 23.7 23.7 100% 75.69 0.0
30 21:15 SE 7 14.48 A Few Clouds FEW160 24 24 100% 23 75.72 0.0
30 20:55 Calm 11.27 Mostly Cloudy BKN160 24.7 24.7 100% 24 75.69 0.0
30 20:35 SE 7 8.05 Light Rain Fog/Mist BKN160 BKN210 24.9 24.9 100% 25 75.69 0.0
30 20:15 SE 7 14.48 Mostly Cloudy BKN210 24.9 24.9 100% 25 75.67 0.0
30 19:55 SE 6 14.48 Partly Cloudy SCT200 25.2 25.2 100% 26 75.67 0.0
30 19:35 SE 9 14.48 Partly Cloudy SCT190 25.9 25.5 98% 28 75.67 0.0
30 19:15 SE 11 14.48 Fair CLR 26.6 25.6 94% 30 75.67 0.0
30 18:55 SE 11 16.09 A Few Clouds FEW160 27.4 25.8 91% 32 75.69 0.0
30 18:35 SE 11 16.09 Partly Cloudy SCT160 27.7 25.8 89% 33 75.67 0.0
30 18:15 SE 9 16.09 A Few Clouds FEW160 28.3 25.9 87% 34 75.64 0.0
30 17:55 SE 13 16.09 A Few Clouds FEW150 27.8 25.3 86% 33 75.64 0.0
30 17:35 SE 15 16.09 A Few Clouds FEW150 28.1 25.5 86% 33 75.67 0.0
30 17:15 SE 13 16.09 A Few Clouds FEW150 28 25.2 85% 33 75.67 0.0
30 16:55 SE 15 16.09 A Few Clouds FEW160 28.8 24.9 79% 34 75.64 0.0
30 16:35 S 15 16.09 A Few Clouds FEW150 28.4 25.1 82% 34 75.67 0.0
30 16:15 SE 11 16.09 Fair CLR 29.1 25 79% 35 75.67 0.0
30 15:55 S 11 16.09 A Few Clouds FEW300 29.1 24.6 77% 34 75.67 0.0
30 15:35 SE 15 16.09 A Few Clouds FEW160 28.2 25.3 84% 33 75.67 0.0
30 15:15 S 15 16.09 A Few Clouds FEW160 27.9 24.5 82% 32 75.69 0.0
30 14:55 S 15 16.09 A Few Clouds FEW160 27.1 24.5 86% 31 75.72 0.0
30 14:35 S 13 14.48 Partly Cloudy FEW150 SCT370 26.8 23.5 82% 29 75.72 0.0
30 14:15 S 17 16.09 A Few Clouds FEW190 28.2 23.9 78% 32 75.72 0.0
30 13:55 S 17 16.09 A Few Clouds FEW150 26.9 23.2 80% 30 75.72 0.0
30 13:35 S 13 16.09 Partly Cloudy SCT160 25.8 22.9 84% 27 75.72 0.0
30 13:15 SE 15 16.09 Partly Cloudy SCT160 26.1 22.6 81% 28 75.74 0.0
30 12:55 S 13 16.09 Mostly Cloudy BKN160 26.2 22 78% 28 75.77 0.0
30 12:35 S 13 16.09 Mostly Cloudy BKN160 26 22.9 83% 28 75.77 0.0
30 12:15 SE 9 16.09 A Few Clouds FEW160 25.6 22.6 84% 27 75.77 0.0
30 11:55 S 6 16.09 A Few Clouds FEW120 24.9 22.6 87% 26 75.79 0.0
30 11:35 SE 7 14.48 Partly Cloudy SCT120 23.3 22.3 94% 75.77 0.0
30 11:15 SE 9 14.48 Partly Cloudy SCT120 22.6 22.6 100% 75.79 0.0
30 10:55 SE 9 11.27 Light Rain BKN120 22.7 22.4 98% 75.79 0.0
30 10:35 Calm 9.66 Light Rain Fog/Mist FEW075 BKN110 22.6 22.6 100% 75.82 0.0
30 10:15 Calm 14.48 Thunderstorm in Vicinity FEW110 22.6 22.4 99% 75.79 0.0
30 09:55 Calm 11.27 Light Rain Thunderstorm in Vicinity FEW080 BKN110 22.8 21.8 94% 75.77 0.0
30 09:35 Vrbl 6 14.48 Thunderstorm in Vicinity BKN120 22.5 21.6 95% 75.74 0.0
30 09:15 SW 15 12.87 Light Rain Thunderstorm in Vicinity SCT085 BKN130 21.8 21.3 97% 75.72 0.0
30 08:55 S 15 9.66 Light Rain Fog/Mist Thunderstorm in Vicinity FEW060 BKN080 OVC120 21.9 21.2 96% 75.72 0.0
30 08:35 SW 13 12.87 Mostly Cloudy FEW100 BKN120 23 20.8 87% 75.77 0.0
30 08:15 S 9 12.87 Light Rain CLR 23.3 21.1 88% 75.72 0.0
30 07:55 SW 15 14.48 Partly Cloudy SCT170 23.5 20.3 82% 75.72 0.0
30 07:35 S 13 14.48 Partly Cloudy SCT170 23.5 20.3 82% 75.72 0.0
30 07:15 S 13 14.48 Partly Cloudy SCT170 SCT210 22.4 20.3 88% 75.72 0.0
30 06:55 S 9 14.48 Overcast OVC170 21.9 20.2 90% 75.72 0.0
30 06:35 S 6 16.09 Overcast BKN170 OVC220 21.1 20.2 95% 75.72 0.0
30 06:15 S 7 16.09 Mostly Cloudy FEW170 BKN220 21.7 20.1 91% 75.69 0.0
30 05:55 S 7 16.09 Partly Cloudy SCT170 SCT220 21.2 20.3 95% 75.69 0.0
30 05:35 S 9 16.09 Mostly Cloudy SCT170 BKN240 21.2 20.3 95% 75.69 0.0
30 05:15 S 11 16.09 Mostly Cloudy FEW170 BKN230 20.8 20.2 96% 75.69 0.0
30 04:55 S 11 16.09 Mostly Cloudy FEW190 BKN240 21 20.3 96% 75.69 0.0
30 04:35 S 9 16.09 Mostly Cloudy BKN200 BKN230 21.1 20.4 96% 75.69 0.0
30 04:15 S 9 16.09 Overcast BKN200 OVC240 21.1 20.4 96% 75.69 0.0
30 03:55 S 7 14.48 Mostly Cloudy FEW170 BKN200 BKN250 21.2 20.5 96% 75.72 0.0
30 03:35 S 7 16.09 Overcast OVC170 22 20.5 91% 75.69 0.0
30 03:15 S 9 16.09 Mostly Cloudy BKN170 21.7 20.6 94% 75.69 0.0
30 02:55 S 6 16.09 Overcast OVC170 22.2 20.7 91% 75.69 0.0
30 02:35 S 7 16.09 Mostly Cloudy BKN170 22.7 20.4 87% 75.69 0.0
30 02:15 S 9 16.09 A Few Clouds FEW170 22.3 20.5 90% 75.69 0.0
30 01:55 S 9 16.09 Fair CLR 21.9 20.6 92% 75.69 0.0
30 01:35 S 7 16.09 Fair CLR 22.2 20.6 91% 75.69 0.0
30 01:15 S 9 16.09 Fair CLR 21.4 20.6 95% 75.72 0.0
30 00:55 S 11 16.09 Fair CLR 21.3 20.7 96% 75.72 0.0
30 00:35 S 11 16.09 Fair CLR 21.7 20.8 95% 75.72 0.0
30 00:15 S 11 16.09 Fair CLR 22.4 20.9 91% 75.72 0.0
29 23:55 S 9 16.09 Fair CLR 22.7 21 90% 75.72 0.0
29 23:35 S 11 16.09 Fair CLR 23 21.2 90% 75.72 0.0
29 23:15 S 11 16.09 Fair CLR 23.8 21.5 87% 75.72 0.0
29 22:55 S 11 16.09 Fair CLR 23.8 21.7 88% 75.72 0.0
29 22:35 S 11 16.09 Fair CLR 23.9 21.8 88% 24 75.72 0.0
29 22:15 S 9 16.09 Fair CLR 23.7 21.9 90% 75.72 0.0
29 21:55 S 11 16.09 Fair CLR 23.3 22 92% 75.72 0.0
29 21:35 S 13 16.09 Fair CLR 23.1 22.1 94% 75.69 0.0
29 21:15 S 13 16.09 Fair CLR 23.1 22.3 95% 75.69 0.0
29 20:55 SE 11 16.09 Fair CLR 23.2 22.5 96% 75.69 0.0
29 20:35 SE 11 16.09 Fair CLR 23.5 22.8 96% 75.67 0.0
29 20:15 SE 11 14.48 Fair CLR 23.6 22.7 95% 75.67 0.0
29 19:55 S 11 14.48 Fair CLR 24.2 22.8 92% 24 75.67 0.0
29 19:35 S 11 14.48 Fair CLR 24.9 22.9 89% 25 75.67 0.0
29 19:15 S 13 14.48 Fair CLR 26 22.5 81% 28 75.67 0.0
29 18:55 S 13 16.09 Fair CLR 27.2 22.7 76% 30 75.69 0.0
Date Time (cdt) Wind (kph) Vis. (km) Weather Sky Cond. Air Dwpt Max. Min. Relative Humidity Wind Chill (°C) Heat Index (°C) altimeter (cm) sea level (mb) 1 hr 3 hr 6 hr
6 hour
Temperature (ºC) Pressure Precipitation (cm)